createdAt,value
2016-01-20T00:00:15.805Z,-2.1
2016-01-20T00:01:15.823Z,-2.1
2016-01-20T00:02:15.858Z,-2.1
2016-01-20T00:03:15.891Z,-2.1
2016-01-20T00:04:15.910Z,-2.1
2016-01-20T00:05:15.943Z,-2.1
2016-01-20T00:06:16.024Z,-2.1
2016-01-20T00:07:17.793Z,-2.1
2016-01-20T00:08:17.811Z,-2.1
2016-01-20T00:09:17.844Z,-2.1
2016-01-20T00:10:18.130Z,-2.1
2016-01-20T00:11:18.445Z,-2.1
2016-01-20T00:12:18.698Z,-2.1
2016-01-20T00:13:18.998Z,-2
2016-01-20T00:14:19.267Z,-2.1
2016-01-20T00:15:19.534Z,-2.1
2016-01-20T00:16:19.881Z,-2.1
2016-01-20T00:17:21.681Z,-2
2016-01-20T00:18:21.981Z,-2.1
2016-01-20T00:19:22.218Z,-2.1
2016-01-20T00:20:22.518Z,-2
2016-01-20T00:21:22.786Z,-2.1
2016-01-20T00:22:23.069Z,-2.1
2016-01-20T00:23:23.369Z,-2
2016-01-20T00:24:23.652Z,-2
2016-01-20T00:25:23.937Z,-2
2016-01-20T00:26:24.284Z,-2
2016-01-20T00:27:26.036Z,-2
2016-01-20T00:29:26.605Z,-2
2016-01-20T00:30:26.889Z,-2
2016-01-20T00:31:27.172Z,-2
2016-01-20T00:32:27.455Z,-2
2016-01-20T00:33:27.740Z,-2
2016-01-20T00:34:28.024Z,-2
2016-01-20T00:35:28.558Z,-1.9
2016-01-20T00:36:29.154Z,-1.9
2016-01-20T00:37:30.922Z,-1.9
2016-01-20T00:38:31.472Z,-2
2016-01-20T00:39:32.006Z,-2
2016-01-20T00:40:32.540Z,-2
2016-01-20T00:41:33.090Z,-2
2016-01-20T00:42:33.623Z,-2
2016-01-20T00:43:34.157Z,-1.9
2016-01-20T00:44:34.691Z,-1.9
2016-01-20T00:45:35.491Z,-1.9
2016-01-20T00:46:36.353Z,-1.9
2016-01-20T00:47:38.153Z,-1.9
2016-01-20T00:48:38.905Z,-1.9
2016-01-20T00:49:39.704Z,-1.9
2016-01-20T00:50:40.504Z,-1.9
2016-01-20T00:51:41.303Z,-1.9
2016-01-20T00:52:42.087Z,-1.9
2016-01-20T00:53:42.887Z,-1.9
2016-01-20T00:54:43.687Z,-1.9
2016-01-20T00:55:44.471Z,-1.9
2016-01-20T00:56:45.333Z,-1.9
2016-01-20T00:57:47.101Z,-1.9
2016-01-20T00:58:47.886Z,-1.9
2016-01-20T00:59:48.686Z,-1.9
2016-01-20T01:00:49.484Z,-1.9
2016-01-20T01:01:50.284Z,-1.9
2016-01-20T01:02:51.195Z,-1.9
2016-01-20T01:03:51.868Z,-1.9
2016-01-20T01:04:52.667Z,-1.9
2016-01-20T01:05:53.467Z,-1.9
2016-01-20T01:06:54.314Z,-1.9
2016-01-20T01:07:56.083Z,-1.9
2016-01-20T01:08:56.882Z,-1.9
2016-01-20T01:09:57.931Z,-1.9
2016-01-20T01:10:58.981Z,-1.9
2016-01-20T01:12:00.297Z,-1.9
2016-01-20T01:13:01.347Z,-1.9
2016-01-20T01:14:02.662Z,-1.9
2016-01-20T01:15:03.961Z,-1.9
2016-01-20T01:16:05.276Z,-1.9
2016-01-20T01:17:06.639Z,-1.9
2016-01-20T01:18:08.406Z,-1.9
2016-01-20T01:19:09.753Z,-1.8
2016-01-20T01:20:11.022Z,-1.8
2016-01-20T01:21:12.337Z,-1.8
2016-01-20T01:22:13.636Z,-1.8
2016-01-20T01:23:14.952Z,-1.8
2016-01-20T01:24:16.252Z,-1.8
2016-01-20T01:25:17.567Z,-1.8
2016-01-20T01:26:18.882Z,-1.8
2016-01-20T01:27:20.244Z,-1.8
2016-01-20T01:29:23.312Z,-1.8
2016-01-20T01:30:24.628Z,-1.8
2016-01-20T01:31:25.941Z,-1.8
2016-01-20T01:32:27.507Z,-1.8
2016-01-20T01:33:29.057Z,-1.8
2016-01-20T01:34:30.622Z,-1.8
2016-01-20T01:35:31.938Z,-1.8
2016-01-20T01:37:35.130Z,-1.7
2016-01-20T01:38:36.898Z,-1.7
2016-01-20T01:39:38.449Z,-1.7
2016-01-20T01:40:40.279Z,-1.7
2016-01-20T01:41:42.094Z,-1.7
2016-01-20T01:42:43.909Z,-1.7
2016-01-20T01:43:45.740Z,-1.7
2016-01-20T01:44:47.556Z,-1.7
2016-01-20T01:45:49.386Z,-1.7
2016-01-20T01:46:51.201Z,-1.7
2016-01-20T01:47:53.079Z,-1.7
2016-01-20T01:48:54.848Z,-1.7
2016-01-20T01:49:56.663Z,-1.7
2016-01-20T01:50:58.478Z,-1.7
2016-01-20T01:52:00.309Z,-1.7
2016-01-20T01:53:02.123Z,-1.7
2016-01-20T01:54:03.955Z,-1.7
2016-01-20T01:55:05.769Z,-1.7
2016-01-20T01:56:07.585Z,-1.7
2016-01-20T01:57:09.416Z,-1.7
2016-01-20T01:58:11.294Z,-1.7
2016-01-20T01:59:13.047Z,-1.7
2016-01-20T02:00:14.877Z,-1.7
2016-01-20T02:01:16.692Z,-1.6
2016-01-20T02:02:18.507Z,-1.7
2016-01-20T02:03:20.572Z,-1.6
2016-01-20T02:04:22.669Z,-1.6
2016-01-20T02:05:24.768Z,-1.7
2016-01-20T02:06:26.833Z,-1.7
2016-01-20T02:07:28.899Z,-1.6
2016-01-20T02:08:31.026Z,-1.6
2016-01-20T02:09:32.794Z,-1.6
2016-01-20T02:10:34.876Z,-1.6
2016-01-20T02:11:36.957Z,-1.6
2016-01-20T02:12:39.022Z,-1.6
2016-01-20T02:13:41.368Z,-1.6
2016-01-20T02:14:43.699Z,-1.6
2016-01-20T02:15:46.029Z,-1.6
2016-01-20T02:16:48.376Z,-1.6
2016-01-20T02:17:50.737Z,-1.6
2016-01-20T02:18:53.100Z,-1.6
2016-01-20T02:19:54.853Z,-1.6
2016-01-20T02:20:57.199Z,-1.6
2016-01-20T02:21:59.531Z,-1.6
2016-01-20T02:23:01.861Z,-1.6
2016-01-20T02:24:04.206Z,-1.6
2016-01-20T02:25:06.538Z,-1.5
2016-01-20T02:26:08.869Z,-1.5
2016-01-20T02:27:11.215Z,-1.5
2016-01-20T02:28:13.547Z,-1.5
2016-01-20T02:29:15.940Z,-1.5
2016-01-20T02:30:17.708Z,-1.5
2016-01-20T02:31:20.039Z,-1.5
2016-01-20T02:32:22.369Z,-1.5
2016-01-20T02:33:24.716Z,-1.5
2016-01-20T02:34:27.066Z,-1.5
2016-01-20T02:35:29.397Z,-1.5
2016-01-20T02:36:31.727Z,-1.5
2016-01-20T02:37:34.073Z,-1.5
2016-01-20T02:38:36.388Z,-1.5
2016-01-20T02:39:38.781Z,-1.5
2016-01-20T02:40:40.549Z,-1.5
2016-01-20T02:41:42.881Z,-1.5
2016-01-20T02:42:45.227Z,-1.5
2016-01-20T02:43:47.558Z,-1.5
2016-01-20T02:44:49.888Z,-1.5
2016-01-20T02:45:52.235Z,-1.5
2016-01-20T02:47:56.913Z,-1.5
2016-01-20T02:48:59.228Z,-1.4
2016-01-20T02:50:01.620Z,-1.4
2016-01-20T02:51:03.389Z,-1.4
2016-01-20T02:52:05.720Z,-1.4
2016-01-20T02:53:08.050Z,-1.4
2016-01-20T02:54:10.475Z,-1.5
2016-01-20T02:55:12.728Z,-1.4
2016-01-20T02:56:15.059Z,-1.4
2016-01-20T02:57:13.546Z,-1.4
2016-01-20T02:58:15.893Z,-1.4
2016-01-20T02:59:18.223Z,-1.4
2016-01-20T03:00:20.616Z,-1.4
2016-01-20T03:01:22.369Z,-1.3
2016-01-20T03:02:24.716Z,-1.3
2016-01-20T03:03:23.203Z,-1.3
2016-01-20T03:04:25.534Z,-1.4
2016-01-20T03:05:24.021Z,-1.4
2016-01-20T03:06:22.508Z,-1.3
2016-01-20T03:07:24.839Z,-1.4
2016-01-20T03:08:23.325Z,-1.4
2016-01-20T03:09:21.813Z,-1.4
2016-01-20T03:10:20.363Z,-1.4
2016-01-20T03:11:22.116Z,-1.4
2016-01-20T03:12:20.883Z,-1.4
2016-01-20T03:13:19.621Z,-1.3
2016-01-20T03:14:18.342Z,-1.3
2016-01-20T03:15:17.094Z,-1.3
2016-01-20T03:16:15.597Z,-1.3
2016-01-20T03:18:13.071Z,-1.3
2016-01-20T03:19:11.543Z,-1.3
2016-01-20T03:20:10.390Z,-1.4
2016-01-20T03:21:12.657Z,-1.3
2016-01-20T03:23:09.601Z,-1.3
2016-01-20T03:24:08.338Z,-1.3
2016-01-20T03:25:07.090Z,-1.3
2016-01-20T03:26:05.828Z,-1.3
2016-01-20T03:27:04.580Z,-1.3
2016-01-20T03:28:03.318Z,-1.3
2016-01-20T03:29:02.070Z,-1.3
2016-01-20T03:30:00.854Z,-1.3
2016-01-20T03:31:02.637Z,-1.3
2016-01-20T03:32:01.375Z,-1.3
2016-01-20T03:33:00.111Z,-1.3
2016-01-20T03:33:58.849Z,-1.3
2016-01-20T03:34:57.603Z,-1.3
2016-01-20T03:35:56.355Z,-1.3
2016-01-20T03:36:55.076Z,-1.3
2016-01-20T03:37:53.829Z,-1.3
2016-01-20T03:38:52.566Z,-1.2
2016-01-20T03:39:51.366Z,-1.2
2016-01-20T03:40:53.133Z,-1.3
2016-01-20T03:41:51.871Z,-1.3
2016-01-20T03:42:50.623Z,-1.2
2016-01-20T03:43:49.360Z,-1.2
2016-01-20T03:44:48.113Z,-1.2
2016-01-20T03:45:46.849Z,-1.2
2016-01-20T03:46:45.588Z,-1.3
2016-01-20T03:47:44.325Z,-1.3
2016-01-20T03:48:43.122Z,-1.2
2016-01-20T03:49:41.874Z,-1.2
2016-01-20T03:50:43.643Z,-1.2
2016-01-20T03:51:42.630Z,-1.2
2016-01-20T03:53:40.120Z,-1.2
2016-01-20T03:54:38.858Z,-1.2
2016-01-20T03:55:37.611Z,-1.2
2016-01-20T03:56:36.598Z,-1.2
2016-01-20T03:57:35.351Z,-1.2
2016-01-20T03:58:34.088Z,-1.2
2016-01-20T03:59:32.887Z,-1.1
2016-01-20T04:00:34.656Z,-1.1
2016-01-20T04:01:33.392Z,-1.1
2016-01-20T04:02:32.145Z,-1.2
2016-01-20T04:03:31.133Z,-1.1
2016-01-20T04:04:29.948Z,-1.1
2016-01-20T04:05:28.623Z,-1.1
2016-01-20T04:06:27.373Z,-1.1
2016-01-20T04:07:26.375Z,-1.1
2016-01-20T04:08:25.361Z,-1.1
2016-01-20T04:09:24.427Z,-1.1
2016-01-20T04:10:26.180Z,-1.1
2016-01-20T04:11:25.183Z,-1.1
2016-01-20T04:12:24.185Z,-1.1
2016-01-20T04:13:23.188Z,-1.1
2016-01-20T04:14:22.175Z,-1.1
2016-01-20T04:15:21.177Z,-1.1
2016-01-20T04:16:20.430Z,-1.1
2016-01-20T04:17:19.432Z,-1.1
2016-01-20T04:18:18.435Z,-1.1
2016-01-20T04:19:17.485Z,-1.1
2016-01-20T04:20:19.254Z,-1.1
2016-01-20T04:21:18.241Z,-1.1
2016-01-20T04:22:17.509Z,-1.1
2016-01-20T04:23:16.762Z,-1.1
2016-01-20T04:24:16.050Z,-1.1
2016-01-20T04:25:15.272Z,-1.1
2016-01-20T04:26:14.525Z,-1.1
2016-01-20T04:27:13.778Z,-1.1
2016-01-20T04:28:13.031Z,-1.1
2016-01-20T04:29:12.345Z,-1.1
2016-01-20T04:30:14.113Z,-1.1
2016-01-20T04:31:13.381Z,-1.1
2016-01-20T04:32:12.619Z,-1.1
2016-01-20T04:33:11.871Z,-1.1
2016-01-20T04:34:11.124Z,-1.1
2016-01-20T04:35:10.392Z,-1.1
2016-01-20T04:36:09.645Z,-1.1
2016-01-20T04:37:08.898Z,-1.1
2016-01-20T04:38:08.166Z,-1.1
2016-01-20T04:39:07.732Z,-1.1
2016-01-20T04:40:09.485Z,-1.1
2016-01-20T04:41:08.737Z,-1.1
2016-01-20T04:42:08.005Z,-1.1
2016-01-20T04:43:07.507Z,-1.1
2016-01-20T04:44:07.026Z,-1
2016-01-20T04:45:06.529Z,-1
2016-01-20T04:46:06.047Z,-1
2016-01-20T04:47:05.550Z,-1
2016-01-20T04:48:05.068Z,-1
2016-01-20T04:49:04.384Z,-1
2016-01-20T04:51:05.685Z,-1
2016-01-20T04:52:05.172Z,-1
2016-01-20T04:53:04.676Z,-1
2016-01-20T04:54:04.193Z,-1
2016-01-20T04:55:03.962Z,-1
2016-01-20T04:56:03.714Z,-1
2016-01-20T04:57:03.498Z,-1
2016-01-20T04:58:03.001Z,-0.9
2016-01-20T04:59:02.566Z,-0.9
2016-01-20T05:00:04.335Z,-0.9
2016-01-20T05:01:03.853Z,-0.9
2016-01-20T05:02:03.356Z,-1
2016-01-20T05:03:03.124Z,-0.9
2016-01-20T05:05:02.661Z,-0.9
2016-01-20T05:06:02.430Z,-0.9
2016-01-20T05:08:01.966Z,-0.9
2016-01-20T05:09:01.780Z,-1
2016-01-20T05:10:03.549Z,-1
2016-01-20T05:11:03.318Z,-1
2016-01-20T05:12:03.211Z,-0.9
2016-01-20T05:13:02.855Z,-1
2016-01-20T05:14:02.622Z,-0.9
2016-01-20T05:15:02.391Z,-0.9
2016-01-20T05:16:02.159Z,-0.9
2016-01-20T05:17:01.927Z,-0.9
2016-01-20T05:18:01.696Z,-0.9
2016-01-20T05:19:01.526Z,-0.9
2016-01-20T05:20:03.279Z,-0.9
2016-01-20T05:21:03.048Z,-0.9
2016-01-20T05:22:02.832Z,-0.9
2016-01-20T05:23:02.584Z,-0.9
2016-01-20T05:24:02.353Z,-0.9
2016-01-20T05:25:02.120Z,-1
2016-01-20T05:26:01.889Z,-1
2016-01-20T05:27:01.657Z,-1
2016-01-20T05:28:01.426Z,-1
2016-01-20T05:29:01.507Z,-1
2016-01-20T05:30:03.275Z,-1
2016-01-20T05:31:03.043Z,-1
2016-01-20T05:32:03.061Z,-1
2016-01-20T05:33:03.095Z,-1
2016-01-20T05:34:03.114Z,-1
2016-01-20T05:35:03.398Z,-0.9
2016-01-20T05:36:03.666Z,-0.9
2016-01-20T05:37:03.700Z,-0.9
2016-01-20T05:38:03.719Z,-0.9
2016-01-20T05:39:03.799Z,-0.9
2016-01-20T05:40:05.567Z,-0.9
2016-01-20T05:41:05.585Z,-0.9
2016-01-20T05:42:05.604Z,-0.9
2016-01-20T05:43:05.638Z,-0.9
2016-01-20T05:44:05.657Z,-0.9
2016-01-20T05:45:05.675Z,-0.9
2016-01-20T05:46:05.708Z,-0.9
2016-01-20T05:47:05.726Z,-0.9
2016-01-20T05:48:05.745Z,-0.9
2016-01-20T05:49:05.826Z,-0.9
2016-01-20T05:50:07.594Z,-0.9
2016-01-20T05:51:07.613Z,-0.9
2016-01-20T05:52:07.647Z,-0.9
2016-01-20T05:53:07.665Z,-0.9
2016-01-20T05:54:07.948Z,-0.9
2016-01-20T05:55:08.233Z,-0.9
2016-01-20T05:56:08.251Z,-0.9
2016-01-20T05:57:08.270Z,-0.9
2016-01-20T05:58:08.351Z,-0.9
2016-01-20T05:59:08.384Z,-0.9
2016-01-20T06:00:10.137Z,-0.9
2016-01-20T06:01:10.170Z,-0.9
2016-01-20T06:02:10.205Z,-0.9
2016-01-20T06:03:10.223Z,-0.9
2016-01-20T06:04:10.241Z,-0.9
2016-01-20T06:05:10.259Z,-0.9
2016-01-20T06:06:10.294Z,-0.9
2016-01-20T06:07:10.312Z,-0.9
2016-01-20T06:08:10.330Z,-0.9
2016-01-20T06:09:10.411Z,-0.9
2016-01-20T06:10:12.179Z,-0.8
2016-01-20T06:11:12.213Z,-0.8
2016-01-20T06:12:12.232Z,-0.8
2016-01-20T06:13:12.000Z,-0.8
2016-01-20T06:14:12.298Z,-0.8
2016-01-20T06:15:11.775Z,-0.8
2016-01-20T06:16:11.534Z,-0.8
2016-01-20T06:17:11.308Z,-0.8
2016-01-20T06:18:11.051Z,-0.8
2016-01-20T06:19:10.873Z,-0.8
2016-01-20T06:20:12.622Z,-0.8
2016-01-20T06:21:12.388Z,-0.8
2016-01-20T06:22:12.153Z,-0.9
2016-01-20T06:23:11.917Z,-0.8
2016-01-20T06:24:11.683Z,-0.8
2016-01-20T06:25:11.451Z,-0.8
2016-01-20T06:26:11.217Z,-0.8
2016-01-20T06:27:10.984Z,-0.8
2016-01-20T06:28:10.751Z,-0.8
2016-01-20T06:29:10.581Z,-0.8
2016-01-20T06:30:12.334Z,-0.8
2016-01-20T06:31:12.101Z,-0.8
2016-01-20T06:32:11.870Z,-0.8
2016-01-20T06:33:11.653Z,-0.8
2016-01-20T06:34:11.405Z,-0.8
2016-01-20T06:35:11.173Z,-0.8
2016-01-20T06:36:10.941Z,-0.8
2016-01-20T06:37:10.709Z,-0.8
2016-01-20T06:38:10.477Z,-0.8
2016-01-20T06:39:10.308Z,-0.8
2016-01-20T06:40:12.061Z,-0.7
2016-01-20T06:41:11.844Z,-0.8
2016-01-20T06:42:11.597Z,-0.7
2016-01-20T06:43:11.397Z,-0.7
2016-01-20T06:44:11.134Z,-0.8
2016-01-20T06:45:10.902Z,-0.8
2016-01-20T06:46:10.670Z,-0.9
2016-01-20T06:47:10.438Z,-0.9
2016-01-20T06:48:10.207Z,-0.9
2016-01-20T06:49:10.038Z,-0.9
2016-01-20T06:50:11.791Z,-1
2016-01-20T06:51:11.559Z,-1
2016-01-20T06:52:11.327Z,-1
2016-01-20T06:53:11.095Z,-1
2016-01-20T06:54:11.130Z,-1.1
2016-01-20T06:55:11.148Z,-1.1
2016-01-20T06:56:10.916Z,-1.1
2016-01-20T06:57:10.949Z,-1.1
2016-01-20T06:58:10.968Z,-1.1
2016-01-20T06:59:11.049Z,-1.1
2016-01-20T07:00:12.818Z,-1.1
2016-01-20T07:01:12.835Z,-1.1
2016-01-20T07:02:12.869Z,-1.1
2016-01-20T07:03:12.888Z,-1.1
2016-01-20T07:04:12.906Z,-1.1
2016-01-20T07:05:12.675Z,-1.1
2016-01-20T07:06:12.708Z,-1.1
2016-01-20T07:07:12.726Z,-1.1
2016-01-20T07:08:12.761Z,-1.1
2016-01-20T07:09:12.841Z,-1.1
2016-01-20T07:10:14.594Z,-1.1
2016-01-20T07:11:14.628Z,-1.1
2016-01-20T07:12:14.647Z,-1.1
2016-01-20T07:13:14.664Z,-1.2
2016-01-20T07:14:14.699Z,-1.1
2016-01-20T07:15:14.982Z,-1.1
2016-01-20T07:16:15.250Z,-1.1
2016-01-20T07:17:15.535Z,-1.1
2016-01-20T07:18:15.819Z,-1
2016-01-20T07:19:16.149Z,-1
2016-01-20T07:20:17.918Z,-1
2016-01-20T07:21:17.936Z,-1
2016-01-20T07:22:17.970Z,-1
2016-01-20T07:23:17.988Z,-0.9
2016-01-20T07:24:18.007Z,-0.9
2016-01-20T07:26:17.809Z,-0.9
2016-01-20T07:27:17.577Z,-0.9
2016-01-20T07:28:17.377Z,-0.8
2016-01-20T07:29:17.160Z,-0.8
2016-01-20T07:31:18.698Z,-0.8
2016-01-20T07:32:18.466Z,-0.8
2016-01-20T07:33:18.234Z,-0.9
2016-01-20T07:34:17.987Z,-0.7
2016-01-20T07:35:17.770Z,-0.8
2016-01-20T07:36:17.539Z,-0.8
2016-01-20T07:37:17.292Z,-0.7
2016-01-20T07:38:17.060Z,-0.7
2016-01-20T07:39:16.875Z,-0.7
2016-01-20T07:40:18.644Z,-0.7
2016-01-20T07:41:18.412Z,-0.7
2016-01-20T07:42:18.181Z,-0.7
2016-01-20T07:43:17.948Z,-0.7
2016-01-20T07:44:17.717Z,-0.7
2016-01-20T07:45:17.485Z,-0.7
2016-01-20T07:46:17.253Z,-0.7
2016-01-20T07:47:17.022Z,-0.7
2016-01-20T07:48:16.791Z,-0.7
2016-01-20T07:49:16.605Z,-0.7
2016-01-20T07:50:18.373Z,-0.7
2016-01-20T07:51:18.142Z,-0.7
2016-01-20T07:52:17.910Z,-0.7
2016-01-20T07:53:17.679Z,-0.7
2016-01-20T07:54:17.446Z,-0.7
2016-01-20T07:55:17.215Z,-0.7
2016-01-20T07:56:16.983Z,-0.7
2016-01-20T07:57:16.752Z,-0.6
2016-01-20T07:58:16.521Z,-0.6
2016-01-20T07:59:16.335Z,-0.6
2016-01-20T08:00:18.104Z,-0.6
2016-01-20T08:01:17.872Z,-0.5
2016-01-20T08:02:17.640Z,-0.5
2016-01-20T08:03:17.409Z,-0.5
2016-01-20T08:04:17.208Z,-0.5
2016-01-20T08:05:16.929Z,-0.5
2016-01-20T08:06:16.698Z,-0.5
2016-01-20T08:07:16.467Z,-0.5
2016-01-20T08:08:15.985Z,-0.5
2016-01-20T08:09:15.815Z,-0.5
2016-01-20T08:10:17.568Z,-0.6
2016-01-20T08:11:17.087Z,-0.5
2016-01-20T08:12:16.589Z,-0.5
2016-01-20T08:13:16.092Z,-0.5
2016-01-20T08:14:15.611Z,-0.6
2016-01-20T08:15:14.864Z,-0.5
2016-01-20T08:16:14.117Z,-0.5
2016-01-20T08:17:13.369Z,-0.5
2016-01-20T08:18:12.622Z,-0.5
2016-01-20T08:19:11.936Z,-0.4
2016-01-20T08:20:13.706Z,-0.4
2016-01-20T08:22:12.211Z,-0.4
2016-01-20T08:23:11.464Z,-0.4
2016-01-20T08:24:10.717Z,-0.4
2016-01-20T08:25:09.967Z,-0.4
2016-01-20T08:26:09.219Z,-0.4
2016-01-20T08:27:08.472Z,-0.4
2016-01-20T08:28:07.725Z,-0.3
2016-01-20T08:29:07.040Z,-0.3
2016-01-20T08:30:08.793Z,-0.3
2016-01-20T08:31:08.061Z,-0.3
2016-01-20T08:32:07.299Z,-0.3
2016-01-20T08:33:06.582Z,-0.3
2016-01-20T08:34:05.820Z,-0.4
2016-01-20T08:35:05.073Z,-0.3
2016-01-20T08:36:04.060Z,-0.3
2016-01-20T08:37:03.063Z,-0.3
2016-01-20T08:38:01.800Z,-0.3
2016-01-20T08:39:00.598Z,-0.3
2016-01-20T08:40:02.368Z,-0.3
2016-01-20T08:41:01.104Z,-0.3
2016-01-20T08:41:59.842Z,-0.3
2016-01-20T08:42:58.578Z,-0.3
2016-01-20T08:43:57.316Z,-0.3
2016-01-20T08:45:54.822Z,-0.3
2016-01-20T08:46:53.542Z,-0.3
2016-01-20T08:47:52.294Z,-0.2
2016-01-20T08:48:51.079Z,-0.3
2016-01-20T08:49:52.847Z,-0.2
2016-01-20T08:50:51.334Z,-0.2
2016-01-20T08:51:49.821Z,-0.2
2016-01-20T08:52:52.199Z,-0.2
2016-01-20T08:53:54.483Z,-0.2
2016-01-20T08:54:56.799Z,-0.1
2016-01-20T08:55:59.129Z,-0.1
2016-01-20T08:57:01.460Z,-0.1
2016-01-20T08:58:03.807Z,-0.1
2016-01-20T08:59:06.184Z,-0.1
2016-01-20T09:00:07.952Z,-0.1
2016-01-20T09:01:10.282Z,-0.1
2016-01-20T09:02:12.614Z,-0.2
2016-01-20T09:03:14.945Z,-0.1
2016-01-20T09:04:17.385Z,-0.1
2016-01-20T09:05:19.607Z,-0.1
2016-01-20T09:06:21.671Z,-0.1
2016-01-20T09:07:23.768Z,-0.1
2016-01-20T09:08:25.584Z,-0.1
2016-01-20T09:09:27.476Z,0
2016-01-20T09:10:29.214Z,-0.1
2016-01-20T09:11:31.045Z,-0.1
2016-01-20T09:12:32.875Z,0
2016-01-20T09:13:34.675Z,-0.1
2016-01-20T09:14:36.256Z,0
2016-01-20T09:15:37.821Z,0
2016-01-20T09:16:39.370Z,0
2016-01-20T09:17:40.953Z,0.1
2016-01-20T09:18:42.488Z,0.1
2016-01-20T09:19:43.850Z,0.1
2016-01-20T09:20:45.634Z,0
2016-01-20T09:21:46.669Z,0
2016-01-20T09:22:47.701Z,0.1
2016-01-20T09:23:48.752Z,0.1
2016-01-20T09:24:49.801Z,0.1
2016-01-20T09:25:50.585Z,0.1
2016-01-20T09:26:51.384Z,0.1
2016-01-20T09:27:52.168Z,0.1
2016-01-20T09:28:52.968Z,0.1
2016-01-20T09:29:53.549Z,0.1
2016-01-20T09:30:55.318Z,0.1
2016-01-20T09:31:55.851Z,0.1
2016-01-20T09:32:56.118Z,0.2
2016-01-20T09:33:56.404Z,0.2
2016-01-20T09:34:56.671Z,0.2
2016-01-20T09:35:56.955Z,0.2
2016-01-20T09:36:57.239Z,0.2
2016-01-20T09:37:57.507Z,0.2
2016-01-20T09:38:57.792Z,0.2
2016-01-20T09:39:58.138Z,0.3
2016-01-20T09:40:59.891Z,0.3
2016-01-20T09:42:00.159Z,0.3
2016-01-20T09:43:00.177Z,0.2
2016-01-20T09:43:59.946Z,0.2
2016-01-20T09:44:59.714Z,0.2
2016-01-20T09:45:59.466Z,0.3
2016-01-20T09:46:59.235Z,0.2
2016-01-20T09:47:59.003Z,0.3
2016-01-20T09:48:58.772Z,0.3
2016-01-20T09:49:58.592Z,0.3
2016-01-20T09:51:00.361Z,0.3
2016-01-20T09:51:59.863Z,0.3
2016-01-20T09:52:59.381Z,0.3
2016-01-20T09:53:58.633Z,0.4
2016-01-20T09:54:57.871Z,0.4
2016-01-20T09:55:57.373Z,0.4
2016-01-20T09:56:56.891Z,0.4
2016-01-20T09:57:56.144Z,0.4
2016-01-20T09:58:55.397Z,0.5
2016-01-20T09:59:54.446Z,0.4
2016-01-20T10:00:56.215Z,0.5
2016-01-20T10:01:55.468Z,0.5
2016-01-20T10:02:54.721Z,0.5
2016-01-20T10:03:53.973Z,0.5
2016-01-20T10:04:53.225Z,0.5
2016-01-20T10:05:52.478Z,0.5
2016-01-20T10:06:51.965Z,0.5
2016-01-20T10:07:51.484Z,0.5
2016-01-20T10:08:50.986Z,0.5
2016-01-20T10:09:50.301Z,0.5
2016-01-20T10:10:52.054Z,0.5
2016-01-20T10:11:51.307Z,0.5
2016-01-20T10:12:50.560Z,0.5
2016-01-20T10:13:49.812Z,0.6
2016-01-20T10:14:49.064Z,0.6
2016-01-20T10:15:48.317Z,0.6
2016-01-20T10:16:47.570Z,0.6
2016-01-20T10:17:46.823Z,0.6
2016-01-20T10:18:46.076Z,0.6
2016-01-20T10:19:45.375Z,0.5
2016-01-20T10:20:47.128Z,0.5
2016-01-20T10:21:46.381Z,0.5
2016-01-20T10:22:45.384Z,0.5
2016-01-20T10:23:44.121Z,0.5
2016-01-20T10:24:42.855Z,0.5
2016-01-20T10:25:41.592Z,0.5
2016-01-20T10:26:40.329Z,0.5
2016-01-20T10:27:39.066Z,0.5
2016-01-20T10:28:37.804Z,0.5
2016-01-20T10:30:38.372Z,0.6
2016-01-20T10:31:37.093Z,0.5
2016-01-20T10:32:35.860Z,0.5
2016-01-20T10:33:34.568Z,0.5
2016-01-20T10:34:33.320Z,0.5
2016-01-20T10:35:32.056Z,0.5
2016-01-20T10:36:30.793Z,0.5
2016-01-20T10:37:29.531Z,0.5
2016-01-20T10:38:28.268Z,0.5
2016-01-20T10:39:27.051Z,0.5
2016-01-20T10:40:28.820Z,0.5
2016-01-20T10:41:27.556Z,0.5
2016-01-20T10:42:26.325Z,0.5
2016-01-20T10:43:24.781Z,0.5
2016-01-20T10:44:23.517Z,0.6
2016-01-20T10:45:22.255Z,0.6
2016-01-20T10:46:20.993Z,0.6
2016-01-20T10:47:19.730Z,0.6
2016-01-20T10:48:18.201Z,0.7
2016-01-20T10:49:20.595Z,0.7
2016-01-20T10:50:22.347Z,0.7
2016-01-20T10:51:24.444Z,0.8
2016-01-20T10:52:25.977Z,0.8
2016-01-20T10:53:27.527Z,0.9
2016-01-20T10:54:28.827Z,0.9
2016-01-20T10:55:30.158Z,0.8
2016-01-20T10:56:31.175Z,0.8
2016-01-20T10:57:32.224Z,0.7
2016-01-20T10:58:33.290Z,0.7
2016-01-20T10:59:34.137Z,0.6
2016-01-20T11:01:36.673Z,0.6
2016-01-20T11:02:37.458Z,0.6
2016-01-20T11:03:38.507Z,0.6
2016-01-20T11:04:39.557Z,0.6
2016-01-20T11:05:40.340Z,0.7
2016-01-20T11:06:41.124Z,0.7
2016-01-20T11:07:41.924Z,0.7
2016-01-20T11:08:42.724Z,0.7
2016-01-20T11:09:43.570Z,0.6
2016-01-20T11:10:45.323Z,0.6
2016-01-20T11:11:45.841Z,0.7
2016-01-20T11:12:46.390Z,0.6
2016-01-20T11:13:46.925Z,0.6
2016-01-20T11:14:47.709Z,0.6
2016-01-20T11:15:48.492Z,0.6
2016-01-20T11:16:49.277Z,0.5
2016-01-20T11:17:50.076Z,0.6
2016-01-20T11:18:50.859Z,0.6
2016-01-20T11:19:51.706Z,0.6
2016-01-20T11:21:53.992Z,0.7
2016-01-20T11:22:54.530Z,0.7
2016-01-20T11:23:55.314Z,0.6
2016-01-20T11:24:56.114Z,0.6
2016-01-20T11:25:57.006Z,0.6
2016-01-20T11:26:57.681Z,0.6
2016-01-20T11:28:59.515Z,0.6
2016-01-20T11:30:00.627Z,0.6
2016-01-20T11:31:02.380Z,0.6
2016-01-20T11:32:02.913Z,0.6
2016-01-20T11:33:03.697Z,0.5
2016-01-20T11:34:04.482Z,0.5
2016-01-20T11:35:05.281Z,0.5
2016-01-20T11:36:06.049Z,0.5
2016-01-20T11:37:07.098Z,0.5
2016-01-20T11:38:08.149Z,0.5
2016-01-20T11:39:09.198Z,0.5
2016-01-20T11:40:10.294Z,0.5
2016-01-20T11:41:12.047Z,0.5
2016-01-20T11:42:13.082Z,0.4
2016-01-20T11:43:14.147Z,0.5
2016-01-20T11:44:15.196Z,0.5
2016-01-20T11:45:15.980Z,0.5
2016-01-20T11:46:16.765Z,0.5
2016-01-20T11:47:17.799Z,0.4
2016-01-20T11:48:18.848Z,0.5
2016-01-20T11:49:19.898Z,0.5
2016-01-20T11:50:21.010Z,0.5
2016-01-20T11:51:22.779Z,0.5
2016-01-20T11:52:23.546Z,0.5
2016-01-20T11:53:24.346Z,0.5
2016-01-20T11:54:25.240Z,0.5
2016-01-20T11:55:25.914Z,0.5
2016-01-20T11:56:26.448Z,0.5
2016-01-20T11:57:26.982Z,0.5
2016-01-20T11:58:27.765Z,0.5
2016-01-20T11:59:28.565Z,0.5
2016-01-20T12:00:29.162Z,0.5
2016-01-20T12:01:30.914Z,0.6
2016-01-20T12:02:31.448Z,0.6
2016-01-20T12:03:31.717Z,0.7
2016-01-20T12:04:32.001Z,0.6
2016-01-20T12:05:32.270Z,0.6
2016-01-20T12:06:32.554Z,0.6
2016-01-20T12:07:32.822Z,0.6
2016-01-20T12:09:33.373Z,0.7
2016-01-20T12:10:33.705Z,0.7
2016-01-20T12:11:35.458Z,0.7
2016-01-20T12:12:35.742Z,0.7
2016-01-20T12:13:36.259Z,0.7
2016-01-20T12:14:36.794Z,0.7
2016-01-20T12:16:38.111Z,0.7
2016-01-20T12:17:38.661Z,0.8
2016-01-20T12:18:38.930Z,0.8
2016-01-20T12:19:39.213Z,0.8
2016-01-20T12:20:39.528Z,0.8
2016-01-20T12:21:41.297Z,0.8
2016-01-20T12:22:41.831Z,0.8
2016-01-20T12:23:42.100Z,0.8
2016-01-20T12:24:42.383Z,0.8
2016-01-20T12:25:42.651Z,0.7
2016-01-20T12:26:42.919Z,0.7
2016-01-20T12:27:43.235Z,0.7
2016-01-20T12:29:43.757Z,0.7
2016-01-20T12:31:46.090Z,0.7
2016-01-20T12:32:46.639Z,0.7
2016-01-20T12:34:47.691Z,0.7
2016-01-20T12:35:48.241Z,0.7
2016-01-20T12:36:48.759Z,0.7
2016-01-20T12:37:49.543Z,0.7
2016-01-20T12:38:50.077Z,0.7
2016-01-20T12:39:50.346Z,0.7
2016-01-20T12:40:50.693Z,0.7
2016-01-20T12:41:52.446Z,0.8
2016-01-20T12:42:52.463Z,0.7
2016-01-20T12:43:52.731Z,0.8
2016-01-20T12:44:52.751Z,0.8
2016-01-20T12:45:52.768Z,0.8
2016-01-20T12:46:52.537Z,0.8
2016-01-20T12:48:52.058Z,0.7
2016-01-20T12:49:51.826Z,0.7
2016-01-20T12:50:51.657Z,0.7
2016-01-20T12:51:53.394Z,0.7
2016-01-20T12:52:53.161Z,0.7
2016-01-20T12:53:52.930Z,0.7
2016-01-20T12:54:52.683Z,0.7
2016-01-20T12:55:52.451Z,0.7
2016-01-20T12:56:52.469Z,0.6
2016-01-20T12:57:52.488Z,0.7
2016-01-20T12:58:52.506Z,0.6
2016-01-20T12:59:52.525Z,0.6
2016-01-20T13:00:52.855Z,0.6
2016-01-20T13:01:54.608Z,0.6
2016-01-20T13:02:54.626Z,0.5
2016-01-20T13:03:54.926Z,0.5
2016-01-20T13:04:55.179Z,0.5
2016-01-20T13:05:55.463Z,0.5
2016-01-20T13:06:55.731Z,0.5
2016-01-20T13:07:56.015Z,0.4
2016-01-20T13:08:56.283Z,0.4
2016-01-20T13:09:56.552Z,0.4
2016-01-20T13:10:57.148Z,0.3
2016-01-20T13:11:58.901Z,0.3
2016-01-20T13:12:59.434Z,0.3
2016-01-20T13:14:00.218Z,0.2
2016-01-20T13:15:01.003Z,0.2
2016-01-20T13:16:01.801Z,0.2
2016-01-20T13:17:02.587Z,0.1
2016-01-20T13:18:03.120Z,0.1
2016-01-20T13:19:03.920Z,0.1
2016-01-20T13:20:04.719Z,0.1
2016-01-20T13:21:05.534Z,0.1
2016-01-20T13:22:07.303Z,0
2016-01-20T13:23:08.086Z,0
2016-01-20T13:24:09.120Z,0
2016-01-20T13:25:10.186Z,0
2016-01-20T13:26:10.954Z,-0.1
2016-01-20T13:27:11.722Z,-0.1
2016-01-20T13:28:12.788Z,-0.1
2016-01-20T13:29:13.571Z,-0.2
2016-01-20T13:30:14.605Z,-0.1
2016-01-20T13:31:15.717Z,-0.2
2016-01-20T13:32:17.486Z,-0.2
2016-01-20T13:33:18.785Z,-0.2
2016-01-20T13:34:20.085Z,-0.2
2016-01-20T13:35:21.384Z,-0.3
2016-01-20T13:36:22.685Z,-0.3
2016-01-20T13:37:23.983Z,-0.3
2016-01-20T13:38:25.283Z,-0.3
2016-01-20T13:39:26.629Z,-0.3
2016-01-20T13:40:27.898Z,-0.3
2016-01-20T13:41:28.729Z,-0.3
2016-01-20T13:42:30.482Z,-0.3
2016-01-20T13:43:31.532Z,-0.3
2016-01-20T13:44:32.565Z,-0.3
2016-01-20T13:45:33.614Z,-0.4
2016-01-20T13:46:34.665Z,-0.3
2016-01-20T13:47:35.964Z,-0.3
2016-01-20T13:48:37.263Z,-0.3
2016-01-20T13:49:38.563Z,-0.3
2016-01-20T13:50:39.597Z,-0.3
2016-01-20T13:51:40.709Z,-0.4
2016-01-20T13:52:42.461Z,-0.3
2016-01-20T13:53:43.496Z,-0.4
2016-01-20T13:54:44.560Z,-0.4
2016-01-20T13:55:45.875Z,-0.4
2016-01-20T13:56:46.894Z,-0.3
2016-01-20T13:57:48.194Z,-0.3
2016-01-20T13:58:49.227Z,-0.3
2016-01-20T13:59:50.277Z,-0.4
2016-01-20T14:00:51.327Z,-0.4